createdAt,value
2019-03-06T00:01:20.623Z,3.10
2019-03-06T00:03:49.599Z,1.93
2019-03-06T00:06:18.592Z,2.40
2019-03-06T00:08:47.571Z,1.90
2019-03-06T00:11:16.831Z,2.40
2019-03-06T00:13:45.817Z,2.43
2019-03-06T00:16:14.724Z,2.40
2019-03-06T00:18:43.725Z,2.20
2019-03-06T00:21:12.693Z,2.10
2019-03-06T00:23:41.877Z,1.70
2019-03-06T00:26:10.858Z,2.00
2019-03-06T00:28:39.691Z,2.53
2019-03-06T00:31:08.661Z,2.07
2019-03-06T00:33:37.651Z,2.57
2019-03-06T00:36:10.997Z,2.60
2019-03-06T00:38:39.898Z,2.07
2019-03-06T00:41:22.769Z,1.90
2019-03-06T00:43:51.667Z,1.80
2019-03-06T00:46:20.667Z,1.80
2019-03-06T00:48:49.484Z,1.80
2019-03-06T00:51:18.409Z,1.80
2019-03-06T00:53:47.313Z,1.80
2019-03-06T00:56:16.218Z,1.53
2019-03-06T00:58:45.130Z,2.10
2019-03-06T01:01:14.500Z,1.90
2019-03-06T01:03:43.427Z,2.10
2019-03-06T01:06:12.350Z,2.13
2019-03-06T01:08:41.251Z,1.70
2019-03-06T01:11:10.220Z,1.77
2019-03-06T01:13:40.291Z,1.80
2019-03-06T01:16:09.276Z,2.00
2019-03-06T01:18:38.282Z,1.80
2019-03-06T01:21:07.187Z,1.77
2019-03-06T01:23:36.196Z,2.00
2019-03-06T01:26:05.272Z,1.90
2019-03-06T01:28:34.187Z,2.03
2019-03-06T01:31:03.268Z,1.67
2019-03-06T01:33:54.401Z,2.00
2019-03-06T01:36:30.357Z,2.17
2019-03-06T01:39:16.861Z,2.00
2019-03-06T01:42:03.318Z,2.10
2019-03-06T01:44:36.740Z,1.90
2019-03-06T01:47:05.878Z,2.00
2019-03-06T01:49:34.704Z,1.63
2019-03-06T01:52:03.708Z,1.40
2019-03-06T01:54:32.593Z,1.83
2019-03-06T01:57:01.505Z,2.23
2019-03-06T01:59:30.676Z,2.13
2019-03-06T02:01:59.666Z,2.33
2019-03-06T02:04:28.554Z,2.10
2019-03-06T02:06:57.522Z,1.87
2019-03-06T02:09:28.593Z,1.40
2019-03-06T02:11:57.768Z,1.90
2019-03-06T02:14:26.761Z,1.70
2019-03-06T02:16:55.733Z,2.03
2019-03-06T02:19:24.653Z,1.83
2019-03-06T02:21:53.477Z,1.67
2019-03-06T02:24:22.618Z,1.60
2019-03-06T02:26:51.624Z,1.73
2019-03-06T02:29:20.529Z,2.00
2019-03-06T02:31:49.441Z,1.70
2019-03-06T02:34:18.347Z,1.80
2019-03-06T02:36:47.462Z,1.70
2019-03-06T02:39:16.383Z,1.57
2019-03-06T02:41:45.266Z,1.57
2019-03-06T02:44:14.114Z,1.43
2019-03-06T02:46:43.083Z,1.37
2019-03-06T02:49:12.013Z,1.77
2019-03-06T02:51:40.854Z,1.73
2019-03-06T02:54:09.761Z,1.87
2019-03-06T02:56:38.674Z,1.90
2019-03-06T02:59:25.089Z,1.53
2019-03-06T03:02:13.145Z,2.47
2019-03-06T03:04:57.331Z,3.27
2019-03-06T03:07:26.225Z,2.70
2019-03-06T03:09:55.135Z,2.60
2019-03-06T03:12:24.170Z,3.57
2019-03-06T03:14:53.165Z,4.23
2019-03-06T03:17:22.063Z,5.47
2019-03-06T03:19:51.178Z,4.90
2019-03-06T03:22:20.089Z,5.40
2019-03-06T03:24:49.059Z,5.93
2019-03-06T03:27:18.053Z,7.90
2019-03-06T03:29:47.034Z,8.13
2019-03-06T03:32:16.233Z,7.60
2019-03-06T03:34:45.130Z,9.07
2019-03-06T03:37:14.051Z,10.77
2019-03-06T03:39:42.877Z,11.63
2019-03-06T03:42:11.784Z,12.30
2019-03-06T03:44:40.610Z,13.53
2019-03-06T03:47:09.457Z,15.30
2019-03-06T03:49:38.311Z,16.10
2019-03-06T03:52:07.359Z,17.00
2019-03-06T03:54:36.281Z,19.03
2019-03-06T03:57:05.174Z,19.10
2019-03-06T03:59:34.150Z,21.20
2019-03-06T04:02:03.056Z,23.03
2019-03-06T04:04:31.887Z,24.80
2019-03-06T04:07:00.787Z,26.63
2019-03-06T04:09:29.783Z,27.50
2019-03-06T04:11:58.963Z,30.27
2019-03-06T04:14:27.947Z,32.50
2019-03-06T04:16:56.761Z,34.63
2019-03-06T04:19:25.755Z,34.50
2019-03-06T04:21:54.676Z,36.97
2019-03-06T04:24:23.654Z,37.20
2019-03-06T04:26:52.648Z,39.80
2019-03-06T04:29:21.622Z,39.50
2019-03-06T04:31:50.547Z,39.77
2019-03-06T04:34:19.373Z,40.50
2019-03-06T04:36:48.228Z,43.20
2019-03-06T04:39:17.061Z,46.10
2019-03-06T04:41:45.958Z,43.83
2019-03-06T04:44:14.809Z,45.50
2019-03-06T04:46:43.640Z,46.77
2019-03-06T04:49:12.505Z,46.23
2019-03-06T04:51:41.337Z,49.83
2019-03-06T04:54:10.190Z,50.07
2019-03-06T04:56:39.017Z,50.17
2019-03-06T04:59:07.929Z,52.00
2019-03-06T05:01:36.842Z,48.03
2019-03-06T05:04:05.766Z,51.70
2019-03-06T05:06:34.585Z,50.77
2019-03-06T05:09:04.585Z,49.63
2019-03-06T05:11:33.501Z,51.10
2019-03-06T05:14:02.393Z,54.00
2019-03-06T05:16:49.218Z,54.77
2019-03-06T05:19:18.068Z,53.40
2019-03-06T05:21:46.921Z,53.47
2019-03-06T05:24:15.825Z,51.93
2019-03-06T05:26:44.747Z,49.47
2019-03-06T05:29:13.572Z,57.50
2019-03-06T05:32:19.057Z,53.10
2019-03-06T05:34:47.887Z,51.57
2019-03-06T05:37:57.733Z,53.00
2019-03-06T05:40:26.623Z,53.30
2019-03-06T05:42:55.622Z,53.50
2019-03-06T05:45:24.603Z,53.53
2019-03-06T05:47:53.521Z,53.87
2019-03-06T05:50:22.504Z,55.27
2019-03-06T05:52:51.411Z,55.07
2019-03-06T05:55:20.393Z,54.27
2019-03-06T05:57:49.316Z,52.67
2019-03-06T06:00:20.202Z,53.40
2019-03-06T06:02:49.388Z,54.33
2019-03-06T06:05:18.437Z,53.80
2019-03-06T06:07:47.424Z,54.83
2019-03-06T06:10:16.429Z,52.80
2019-03-06T06:12:45.428Z,51.80
2019-03-06T06:15:14.442Z,48.47
2019-03-06T06:17:43.467Z,52.00
2019-03-06T06:20:12.593Z,45.87
2019-03-06T06:23:00.686Z,49.20
2019-03-06T06:25:31.171Z,47.80
2019-03-06T06:28:00.001Z,49.20
2019-03-06T06:30:28.944Z,47.87
2019-03-06T06:32:57.918Z,45.90
2019-03-06T06:35:27.043Z,45.77
2019-03-06T06:37:55.947Z,45.97
2019-03-06T06:40:24.958Z,47.10
2019-03-06T06:42:53.920Z,45.20
2019-03-06T06:45:22.903Z,46.77
2019-03-06T06:48:14.440Z,45.50
2019-03-06T06:51:01.748Z,47.57
2019-03-06T06:53:51.525Z,45.40
2019-03-06T06:56:53.149Z,41.67
2019-03-06T06:59:40.341Z,42.90
2019-03-06T07:02:45.665Z,40.00
2019-03-06T07:05:39.593Z,41.23
2019-03-06T07:08:26.317Z,40.43
2019-03-06T07:11:17.407Z,39.80
2019-03-06T07:13:53.103Z,39.70
2019-03-06T07:16:44.047Z,38.80
2019-03-06T07:19:23.246Z,36.93
2019-03-06T07:22:14.277Z,38.27
2019-03-06T07:25:02.229Z,36.73
2019-03-06T07:27:48.852Z,38.57
2019-03-06T07:30:44.892Z,35.00
2019-03-06T07:33:38.609Z,37.00
2019-03-06T07:36:29.892Z,36.10
2019-03-06T07:39:17.898Z,34.90
2019-03-06T07:42:06.149Z,32.77
2019-03-06T07:44:54.124Z,34.97
2019-03-06T07:47:48.105Z,33.03
2019-03-06T07:50:34.968Z,32.30
2019-03-06T07:53:59.910Z,32.40
2019-03-06T07:56:35.309Z,32.47
2019-03-06T07:59:04.381Z,32.10
2019-03-06T08:01:39.149Z,30.13
2019-03-06T08:04:10.075Z,31.20
2019-03-06T08:06:40.748Z,29.57
2019-03-06T08:09:11.620Z,30.70
2019-03-06T08:11:47.636Z,30.43
2019-03-06T08:14:34.070Z,31.60
2019-03-06T08:17:24.699Z,30.93
2019-03-06T08:20:24.466Z,28.33
2019-03-06T08:23:15.373Z,29.43
2019-03-06T08:25:48.054Z,27.13
2019-03-06T08:28:17.033Z,28.23
2019-03-06T08:31:09.199Z,29.10
2019-03-06T08:33:38.113Z,26.03
2019-03-06T08:36:07.088Z,27.50
2019-03-06T08:38:35.934Z,26.67
2019-03-06T08:41:06.465Z,25.77
2019-03-06T08:43:35.529Z,24.63
2019-03-06T08:46:29.486Z,27.53
2019-03-06T08:49:23.529Z,28.10
2019-03-06T08:51:57.820Z,25.63
2019-03-06T08:54:34.639Z,26.67
2019-03-06T08:57:14.626Z,23.00
2019-03-06T09:00:14.573Z,23.27
2019-03-06T09:02:54.945Z,22.20
2019-03-06T09:05:40.871Z,23.37
2019-03-06T09:08:28.114Z,22.03
2019-03-06T09:11:19.117Z,24.43
2019-03-06T09:14:05.375Z,21.90
2019-03-06T09:16:39.339Z,20.53
2019-03-06T09:19:26.205Z,20.60
2019-03-06T09:22:04.053Z,22.20
2019-03-06T09:24:57.950Z,22.50
2019-03-06T09:27:40.509Z,18.43
2019-03-06T09:30:38.929Z,18.17
2019-03-06T09:33:39.353Z,18.43
2019-03-06T09:36:31.984Z,18.50
2019-03-06T09:39:21.861Z,18.47
2019-03-06T09:42:08.353Z,18.60
2019-03-06T09:44:55.266Z,15.73
2019-03-06T09:47:30.825Z,19.57
2019-03-06T09:50:11.773Z,16.80
2019-03-06T09:52:58.527Z,16.90
2019-03-06T09:55:55.502Z,15.43
2019-03-06T09:58:41.344Z,17.23
2019-03-06T10:01:38.389Z,17.00
2019-03-06T10:04:35.349Z,20.23
2019-03-06T10:07:35.721Z,39.33
2019-03-06T10:10:33.977Z,37.63
2019-03-06T10:13:09.160Z,39.47
2019-03-06T10:16:03.369Z,40.73
2019-03-06T10:18:54.674Z,39.07
2019-03-06T10:21:25.557Z,40.87
2019-03-06T10:23:54.372Z,47.17
2019-03-06T10:26:23.553Z,44.90
2019-03-06T10:28:52.528Z,45.37
2019-03-06T10:31:21.546Z,46.23
2019-03-06T10:33:50.570Z,44.27
2019-03-06T10:36:19.567Z,45.33
2019-03-06T10:38:48.653Z,43.20
2019-03-06T10:41:17.809Z,40.60
2019-03-06T10:43:49.639Z,42.37
2019-03-06T10:46:17.548Z,45.40
2019-03-06T10:48:48.338Z,40.63
2019-03-06T10:51:17.335Z,41.63
2019-03-06T10:53:46.313Z,40.33
2019-03-06T10:56:15.397Z,40.40
2019-03-06T10:58:44.448Z,41.07
2019-03-06T11:01:13.743Z,38.07
2019-03-06T11:03:55.644Z,39.53
2019-03-06T11:06:24.634Z,38.00
2019-03-06T11:08:53.690Z,37.40
2019-03-06T11:11:22.761Z,36.73
2019-03-06T11:13:51.724Z,37.50
2019-03-06T11:16:20.661Z,32.70
2019-03-06T11:18:49.805Z,37.43
2019-03-06T11:21:19.320Z,34.27
2019-03-06T11:23:48.402Z,34.10
2019-03-06T11:26:17.410Z,33.57
2019-03-06T11:28:46.392Z,33.27
2019-03-06T11:31:15.790Z,31.30
2019-03-06T11:33:44.975Z,32.23
2019-03-06T11:36:14.081Z,33.60
2019-03-06T11:38:44.343Z,32.00
2019-03-06T11:41:13.745Z,30.73
2019-03-06T11:43:42.749Z,28.57
2019-03-06T11:46:13.210Z,28.57
2019-03-06T11:48:42.188Z,29.30
2019-03-06T11:51:11.213Z,27.97
2019-03-06T11:53:40.189Z,26.23
2019-03-06T11:56:09.585Z,27.30
2019-03-06T11:58:38.973Z,27.73
2019-03-06T12:01:13.781Z,25.60
2019-03-06T12:03:42.783Z,23.70
2019-03-06T12:06:11.849Z,22.13
2019-03-06T12:08:45.585Z,22.80
2019-03-06T12:11:11.613Z,21.70
2019-03-06T12:13:40.830Z,19.90
2019-03-06T12:16:11.174Z,19.50
2019-03-06T12:18:40.085Z,18.53
2019-03-06T12:21:09.178Z,18.17
2019-03-06T12:23:38.104Z,17.80
2019-03-06T12:26:07.205Z,17.47
2019-03-06T12:28:36.211Z,18.47
2019-03-06T12:31:07.654Z,15.43
2019-03-06T12:33:36.665Z,16.90
2019-03-06T12:36:05.794Z,16.67
2019-03-06T12:38:34.803Z,14.13
2019-03-06T12:41:04.299Z,14.10
2019-03-06T12:43:33.733Z,15.07
2019-03-06T12:46:22.402Z,14.00
2019-03-06T12:48:45.037Z,13.40
2019-03-06T12:51:14.072Z,13.80
2019-03-06T12:53:43.370Z,16.00
2019-03-06T12:56:12.390Z,18.73
2019-03-06T12:58:41.334Z,24.77
2019-03-06T13:01:10.258Z,31.87
2019-03-06T13:03:39.212Z,28.20
2019-03-06T13:06:08.181Z,26.23
2019-03-06T13:08:37.454Z,27.97
2019-03-06T13:11:06.465Z,26.40
2019-03-06T13:13:35.934Z,26.53
2019-03-06T13:16:07.328Z,26.77
2019-03-06T13:18:36.313Z,23.97
2019-03-06T13:21:07.654Z,23.93
2019-03-06T13:23:36.858Z,23.70
2019-03-06T13:26:10.395Z,20.10
2019-03-06T13:28:36.678Z,22.57
2019-03-06T13:31:05.851Z,21.10
2019-03-06T13:33:45.817Z,19.20
2019-03-06T13:36:14.746Z,19.93
2019-03-06T13:38:43.758Z,16.57
2019-03-06T13:41:12.766Z,17.13
2019-03-06T13:43:41.631Z,16.40
2019-03-06T13:46:10.662Z,14.83
2019-03-06T13:48:39.669Z,14.60
2019-03-06T13:51:08.672Z,15.60
2019-03-06T13:53:37.665Z,14.67
2019-03-06T13:56:07.220Z,16.20
2019-03-06T13:58:36.222Z,16.30
2019-03-06T14:01:07.907Z,12.60
2019-03-06T14:03:36.892Z,13.93
2019-03-06T14:06:05.951Z,13.47
2019-03-06T14:08:35.029Z,11.43
2019-03-06T14:11:04.026Z,12.97
2019-03-06T14:13:33.041Z,12.20
2019-03-06T14:16:02.038Z,12.73
2019-03-06T14:18:31.029Z,12.30
2019-03-06T14:21:00.104Z,12.97
2019-03-06T14:23:34.965Z,12.67
2019-03-06T14:25:59.978Z,13.00
2019-03-06T14:28:28.901Z,13.00
2019-03-06T14:30:57.906Z,11.43
2019-03-06T14:33:26.975Z,12.00
2019-03-06T14:35:55.955Z,12.50
2019-03-06T14:38:24.953Z,10.57
2019-03-06T14:40:54.057Z,12.70
2019-03-06T14:43:22.985Z,11.00
2019-03-06T14:45:52.009Z,12.67
2019-03-06T14:48:21.009Z,11.20
2019-03-06T14:50:49.887Z,12.20
2019-03-06T14:53:18.894Z,12.33
2019-03-06T14:55:47.897Z,11.07
2019-03-06T14:58:19.185Z,11.37
2019-03-06T15:00:48.117Z,9.87
2019-03-06T15:03:17.513Z,11.83
2019-03-06T15:05:47.693Z,9.23
2019-03-06T15:08:16.619Z,9.27
2019-03-06T15:10:45.552Z,10.23
2019-03-06T15:13:15.898Z,10.57
2019-03-06T15:15:44.966Z,10.37
2019-03-06T15:18:14.501Z,9.13
2019-03-06T15:20:43.565Z,9.57
2019-03-06T15:23:12.867Z,10.20
2019-03-06T15:25:41.807Z,9.40
2019-03-06T15:28:10.808Z,9.30
2019-03-06T15:30:40.781Z,10.23
2019-03-06T15:33:09.849Z,8.33
2019-03-06T15:35:38.775Z,8.77
2019-03-06T15:38:09.382Z,10.07
2019-03-06T15:40:40.525Z,9.47
2019-03-06T15:43:13.243Z,9.00
2019-03-06T15:45:42.478Z,8.90
2019-03-06T15:48:13.709Z,9.23
2019-03-06T15:50:42.701Z,10.37
2019-03-06T15:53:14.228Z,9.13
2019-03-06T15:55:43.255Z,7.63
2019-03-06T15:58:12.443Z,9.27
2019-03-06T16:00:46.156Z,7.80
2019-03-06T16:03:13.149Z,7.87
2019-03-06T16:05:42.692Z,9.00
2019-03-06T16:08:14.181Z,7.40
2019-03-06T16:10:43.357Z,8.03
2019-03-06T16:13:12.347Z,8.87
2019-03-06T16:15:41.346Z,7.80
2019-03-06T16:18:10.683Z,7.67
2019-03-06T16:20:41.293Z,7.23
2019-03-06T16:23:10.357Z,8.80
2019-03-06T16:25:40.681Z,6.70
2019-03-06T16:28:09.667Z,8.00
2019-03-06T16:30:39.242Z,7.80
2019-03-06T16:33:08.224Z,8.47
2019-03-06T16:35:37.808Z,6.47
2019-03-06T16:38:06.987Z,6.70
2019-03-06T16:40:36.084Z,7.07
2019-03-06T16:43:05.344Z,8.00
2019-03-06T16:45:34.334Z,6.27
2019-03-06T16:48:03.337Z,7.80
2019-03-06T16:50:32.334Z,7.70
2019-03-06T16:53:01.421Z,6.83
2019-03-06T16:55:30.468Z,7.77
2019-03-06T16:57:59.952Z,7.03
2019-03-06T17:00:30.890Z,7.20
2019-03-06T17:03:00.611Z,7.30
2019-03-06T17:05:30.108Z,7.63
2019-03-06T17:07:59.522Z,7.40
2019-03-06T17:10:28.719Z,7.37
2019-03-06T17:12:57.898Z,6.23
2019-03-06T17:15:27.976Z,6.57
2019-03-06T17:17:56.948Z,6.27
2019-03-06T17:20:27.210Z,6.97
2019-03-06T17:22:56.406Z,6.53
2019-03-06T17:25:28.041Z,6.10
2019-03-06T17:27:56.197Z,7.83
2019-03-06T17:30:25.666Z,6.67
2019-03-06T17:32:59.334Z,7.40
2019-03-06T17:35:28.831Z,6.33
2019-03-06T17:37:57.980Z,6.40
2019-03-06T17:40:27.340Z,6.30
2019-03-06T17:42:56.432Z,6.93
2019-03-06T17:45:25.622Z,7.07
2019-03-06T17:47:54.985Z,7.03
2019-03-06T17:50:24.480Z,5.77
2019-03-06T17:52:53.809Z,6.53
2019-03-06T17:55:22.814Z,6.43
2019-03-06T17:57:51.805Z,5.70
2019-03-06T18:00:27.765Z,7.03
2019-03-06T18:02:57.975Z,6.27
2019-03-06T18:05:27.124Z,6.77
2019-03-06T18:07:58.425Z,6.20
2019-03-06T18:10:27.673Z,5.90
2019-03-06T18:12:56.599Z,6.20
2019-03-06T18:15:25.944Z,6.60
2019-03-06T18:17:54.943Z,7.07
2019-03-06T18:20:23.769Z,6.70
2019-03-06T18:22:52.793Z,6.20
2019-03-06T18:25:21.830Z,6.30
2019-03-06T18:27:50.853Z,6.97
2019-03-06T18:30:19.957Z,6.20
2019-03-06T18:32:49.150Z,6.30
2019-03-06T18:35:18.266Z,6.80
2019-03-06T18:37:47.565Z,5.67
2019-03-06T18:40:17.407Z,5.77
2019-03-06T18:42:46.545Z,6.70
2019-03-06T18:45:16.398Z,6.50
2019-03-06T18:47:45.388Z,5.07
2019-03-06T18:50:16.645Z,5.53
2019-03-06T18:52:45.669Z,6.03
2019-03-06T18:55:15.334Z,6.20
2019-03-06T18:57:44.313Z,5.57
2019-03-06T19:00:16.521Z,5.50
2019-03-06T19:02:45.500Z,6.40
2019-03-06T19:05:14.710Z,6.27
2019-03-06T19:07:44.486Z,5.30
2019-03-06T19:10:15.880Z,5.60
2019-03-06T19:12:44.795Z,5.07
2019-03-06T19:15:16.282Z,5.70
2019-03-06T19:17:46.007Z,5.90
2019-03-06T19:20:18.735Z,5.00
2019-03-06T19:22:49.093Z,4.67
2019-03-06T19:25:18.831Z,4.23
2019-03-06T19:27:49.523Z,4.33
2019-03-06T19:30:21.330Z,6.27
2019-03-06T19:32:51.260Z,5.37
2019-03-06T19:35:20.989Z,4.80
2019-03-06T19:37:51.290Z,5.10
2019-03-06T19:40:20.945Z,4.90
2019-03-06T19:42:50.330Z,5.83
2019-03-06T19:45:19.558Z,5.87
2019-03-06T19:47:50.478Z,5.83
2019-03-06T19:50:20.754Z,4.80
2019-03-06T19:52:49.782Z,4.57
2019-03-06T19:55:19.289Z,5.13
2019-03-06T19:57:57.561Z,4.33
2019-03-06T20:00:29.480Z,5.53
2019-03-06T20:02:59.615Z,4.43
2019-03-06T20:05:34.820Z,5.63
2019-03-06T20:08:08.606Z,5.07
2019-03-06T20:10:38.365Z,4.40
2019-03-06T20:13:08.809Z,4.23
2019-03-06T20:15:38.457Z,5.40
2019-03-06T20:18:07.542Z,5.20
2019-03-06T20:20:37.102Z,4.33
2019-03-06T20:23:06.086Z,4.77
2019-03-06T20:25:37.090Z,4.67
2019-03-06T20:28:06.005Z,4.10
2019-03-06T20:30:35.553Z,4.33
2019-03-06T20:33:05.188Z,5.60
2019-03-06T20:35:34.202Z,4.27
2019-03-06T20:38:03.473Z,5.37
2019-03-06T20:40:32.488Z,4.80
2019-03-06T20:43:01.487Z,4.60
2019-03-06T20:45:30.482Z,3.60
2019-03-06T20:47:59.465Z,4.50
2019-03-06T20:50:28.397Z,3.60
2019-03-06T20:52:57.660Z,4.57
2019-03-06T20:55:26.661Z,4.00
2019-03-06T20:57:55.841Z,3.97
2019-03-06T21:00:25.323Z,4.43
2019-03-06T21:02:54.384Z,4.53
2019-03-06T21:05:23.436Z,4.90
2019-03-06T21:07:52.522Z,3.40
2019-03-06T21:10:21.598Z,4.00
2019-03-06T21:12:50.589Z,4.13
2019-03-06T21:15:19.617Z,3.83
2019-03-06T21:17:50.944Z,4.60
2019-03-06T21:20:19.851Z,4.17
2019-03-06T21:22:48.858Z,3.50
2019-03-06T21:25:18.133Z,4.00
2019-03-06T21:27:47.197Z,3.93
2019-03-06T21:30:39.138Z,3.90
2019-03-06T21:33:08.041Z,3.43
2019-03-06T21:35:37.033Z,4.60
2019-03-06T21:38:06.019Z,3.90
2019-03-06T21:40:35.016Z,4.23
2019-03-06T21:43:04.006Z,4.00
2019-03-06T21:45:33.862Z,4.20
2019-03-06T21:48:03.025Z,4.33
2019-03-06T21:50:32.027Z,3.70
2019-03-06T21:53:00.998Z,3.60
2019-03-06T21:55:30.286Z,3.97
2019-03-06T21:57:59.566Z,4.00
2019-03-06T22:00:28.573Z,4.00
2019-03-06T22:02:57.590Z,3.47
2019-03-06T22:05:26.515Z,3.47
2019-03-06T22:07:55.565Z,4.00
2019-03-06T22:10:24.770Z,3.80
2019-03-06T22:12:53.661Z,3.60
2019-03-06T22:15:22.958Z,3.17
2019-03-06T22:17:51.936Z,3.90
2019-03-06T22:20:20.926Z,3.00
2019-03-06T22:22:50.018Z,3.47
2019-03-06T22:25:19.393Z,3.60
2019-03-06T22:27:48.454Z,3.27
2019-03-06T22:30:18.211Z,3.53
2019-03-06T22:32:47.557Z,2.77
2019-03-06T22:35:16.549Z,2.60
2019-03-06T22:37:45.505Z,3.80
2019-03-06T22:40:15.404Z,3.40
2019-03-06T22:42:44.398Z,2.53
2019-03-06T22:45:14.399Z,2.80
2019-03-06T22:47:43.429Z,3.17
2019-03-06T22:50:13.241Z,2.97
2019-03-06T22:52:42.360Z,3.30
2019-03-06T22:55:13.102Z,3.00
2019-03-06T22:57:42.054Z,3.77
2019-03-06T23:00:28.812Z,3.03
2019-03-06T23:02:57.922Z,3.00
2019-03-06T23:05:27.227Z,3.33
2019-03-06T23:07:56.230Z,3.77
2019-03-06T23:10:25.211Z,3.33
2019-03-06T23:12:54.341Z,3.37
2019-03-06T23:15:23.323Z,3.27
2019-03-06T23:17:52.253Z,3.50
2019-03-06T23:20:21.245Z,3.10
2019-03-06T23:22:50.080Z,3.40
2019-03-06T23:25:20.057Z,2.77
2019-03-06T23:27:48.971Z,2.57
2019-03-06T23:30:17.978Z,2.30
2019-03-06T23:32:47.158Z,2.90
2019-03-06T23:35:16.101Z,2.80
2019-03-06T23:37:45.105Z,3.03
2019-03-06T23:40:14.093Z,2.97
2019-03-06T23:42:43.074Z,2.80
2019-03-06T23:45:12.462Z,2.90
2019-03-06T23:47:42.342Z,2.67
2019-03-06T23:50:11.488Z,3.00
2019-03-06T23:52:58.391Z,2.90
2019-03-06T23:55:29.105Z,3.20
2019-03-06T23:58:01.545Z,3.17
